Time;durP1;ratioP1;P1;durP2;ratioP2;P2;SDS_P1;SDS_P2;PMS_P1;PMS_P2;Temp;Humidity;BMP_temperature;BMP_pressure;BME280_temperature;BME280_humidity;BME280_pressure;Samples;Min_cycle;Max_cycle;Signal;HPM_P1;HPM_P2
2022/10/18 00:02:02;;;;;;;1.17;1.07;;;17.50;99.90;;;;;;5094619;28;21027;-70
2022/10/18 00:04:31;;;;;;;1.07;1.03;;;17.50;99.90;;;;;;5092206;28;20215;-69
2022/10/18 00:06:58;;;;;;;3.40;1.30;;;17.50;99.90;;;;;;5093933;28;20203;-69
2022/10/18 00:09:26;;;;;;;1.30;1.20;;;17.50;99.90;;;;;;5085389;28;20600;-69
2022/10/18 00:11:53;;;;;;;1.30;1.20;;;17.50;99.90;;;;;;5094335;28;20206;-68
2022/10/18 00:14:20;;;;;;;1.00;1.00;;;17.50;99.90;;;;;;5097767;22;20601;-65
2022/10/18 00:16:46;;;;;;;1.03;1.03;;;17.50;99.90;;;;;;5082977;28;20230;-63
2022/10/18 00:19:13;;;;;;;1.20;1.10;;;17.40;99.90;;;;;;5079320;28;20259;-63
2022/10/18 00:21:41;;;;;;;2.17;1.03;;;17.40;99.90;;;;;;5072524;28;20274;-62
2022/10/18 00:24:08;;;;;;;1.20;1.13;;;17.40;99.90;;;;;;5072060;28;20215;-64
2022/10/18 00:26:36;;;;;;;1.00;1.00;;;17.40;99.90;;;;;;5070455;28;20204;-63
2022/10/18 00:29:05;;;;;;;2.00;1.00;;;17.40;99.90;;;;;;5071882;28;20233;-62
2022/10/18 00:31:34;;;;;;;1.27;1.17;;;17.30;99.90;;;;;;5072258;28;20200;-64
2022/10/18 00:34:02;;;;;;;1.03;1.03;;;17.30;99.90;;;;;;5071620;28;20722;-63
2022/10/18 00:36:33;;;;;;;1.37;1.27;;;17.30;99.90;;;;;;5072104;28;20203;-63
2022/10/18 00:39:01;;;;;;;1.10;1.10;;;17.30;99.90;;;;;;5071924;28;20210;-63
2022/10/18 00:41:30;;;;;;;1.10;1.00;;;17.40;99.90;;;;;;5071793;28;20210;-63
2022/10/18 00:43:59;;;;;;;1.60;1.20;;;17.30;99.90;;;;;;5071693;28;20253;-62
2022/10/18 00:46:27;;;;;;;1.60;1.20;;;17.30;99.90;;;;;;5072190;28;20572;-63
2022/10/18 00:48:57;;;;;;;1.23;1.20;;;17.30;99.90;;;;;;5071567;28;20227;-63
2022/10/18 00:51:26;;;;;;;1.00;1.00;;;17.30;99.90;;;;;;5071461;28;20203;-63
2022/10/18 00:53:53;;;;;;;2.13;1.20;;;17.40;99.90;;;;;;5068872;28;20223;-62
2022/10/18 00:56:22;;;;;;;2.10;1.10;;;17.40;99.90;;;;;;5068976;28;20306;-62
2022/10/18 00:58:50;;;;;;;1.23;0.97;;;17.40;99.90;;;;;;5071111;28;20204;-63
2022/10/18 01:01:17;;;;;;;0.90;0.90;;;17.50;99.90;;;;;;5068165;28;20206;-62
2022/10/18 01:03:44;;;;;;;2.00;1.37;;;17.50;99.90;;;;;;5070777;28;20337;-63
2022/10/18 01:06:11;;;;;;;1.00;1.00;;;17.50;99.90;;;;;;5071123;28;20878;-63
2022/10/18 01:08:48;;;;;;;0.97;0.97;;;17.60;99.90;;;;;;5070789;28;20305;-65
2022/10/18 01:11:37;;;;;;;1.10;1.00;;;17.60;99.90;;;;;;5069120;28;20203;-65
2022/10/18 01:14:15;;;;;;;1.30;1.10;;;17.70;99.90;;;;;;5067980;28;20223;-64
2022/10/18 01:16:47;;;;;;;0.80;0.80;;;17.70;99.90;;;;;;5064256;28;20225;-63
2022/10/18 01:19:31;;;;;;;1.00;1.00;;;17.70;99.90;;;;;;5064914;28;20294;-64
2022/10/18 01:22:02;;;;;;;1.67;1.10;;;17.60;99.90;;;;;;5074772;28;20592;-64
2022/10/18 01:25:09;;;;;;;0.90;0.90;;;17.60;99.90;;;;;;5075305;28;20223;-64
2022/10/18 01:27:48;;;;;;;3.90;1.00;;;17.50;99.90;;;;;;5072265;28;20199;-63
2022/10/18 01:30:43;;;;;;;1.10;1.00;;;17.40;99.90;;;;;;5074765;28;20219;-63
2022/10/18 01:33:21;;;;;;;1.40;1.10;;;17.40;99.90;;;;;;5074553;28;20219;-64
2022/10/18 01:35:53;;;;;;;1.63;1.27;;;17.40;99.90;;;;;;5068928;28;20199;-64
2022/10/18 01:38:22;;;;;;;2.03;1.33;;;17.30;99.90;;;;;;5068382;28;20192;-65
2022/10/18 01:40:51;;;;;;;0.90;0.90;;;17.30;99.90;;;;;;5066046;28;20262;-59
2022/10/18 01:43:19;;;;;;;1.20;1.10;;;17.30;99.90;;;;;;5071401;28;20219;-65
2022/10/18 01:45:49;;;;;;;1.17;1.03;;;17.30;99.90;;;;;;5063222;28;20209;-63
2022/10/18 01:48:17;;;;;;;2.90;1.10;;;17.30;99.90;;;;;;5073204;28;20216;-64
2022/10/18 01:50:44;;;;;;;0.80;0.80;;;17.20;99.90;;;;;;5075402;28;20199;-64
2022/10/18 01:53:28;;;;;;;1.27;1.00;;;17.20;99.90;;;;;;5073299;28;20784;-63
2022/10/18 01:56:18;;;;;;;2.70;1.13;;;17.20;99.90;;;;;;5073989;28;20221;-63
2022/10/18 01:58:53;;;;;;;1.50;1.00;;;17.20;99.90;;;;;;5072832;28;20291;-64
2022/10/18 02:01:29;;;;;;;1.03;1.03;;;17.20;99.90;;;;;;5063383;28;20212;-63
2022/10/18 02:04:04;;;;;;;1.30;1.20;;;17.20;99.90;;;;;;5072485;28;20310;-65
2022/10/18 02:06:35;;;;;;;1.00;1.00;;;17.30;99.90;;;;;;5075683;28;20205;-65
2022/10/18 02:09:07;;;;;;;1.63;0.90;;;17.30;99.90;;;;;;5074780;28;20692;-61
2022/10/18 02:11:38;;;;;;;6.70;1.40;;;17.30;99.90;;;;;;5074678;28;20195;-64
2022/10/18 02:14:08;;;;;;;1.30;1.20;;;17.30;99.90;;;;;;5074621;28;20245;-59
2022/10/18 02:16:41;;;;;;;1.30;1.20;;;17.40;99.90;;;;;;5074524;28;20286;-64
2022/10/18 02:19:12;;;;;;;1.00;1.00;;;17.40;99.90;;;;;;5074712;28;20209;-63
2022/10/18 02:21:41;;;;;;;1.00;1.00;;;17.30;99.90;;;;;;5069597;28;20195;-64
2022/10/18 02:24:11;;;;;;;2.13;1.20;;;17.30;99.90;;;;;;5074621;28;20237;-63
2022/10/18 02:26:37;;;;;;;1.27;1.10;;;17.30;99.90;;;;;;5074279;28;20200;-67
2022/10/18 02:29:04;;;;;;;1.73;1.10;;;17.30;99.90;;;;;;5074468;28;20227;-63
2022/10/18 02:31:39;;;;;;;1.40;1.30;;;17.30;99.90;;;;;;5073672;28;20211;-63
2022/10/18 02:34:15;;;;;;;1.00;1.00;;;17.30;99.90;;;;;;5074128;28;20708;-62
2022/10/18 02:36:45;;;;;;;1.90;1.17;;;17.20;99.90;;;;;;5074075;28;20209;-65
2022/10/18 02:39:14;;;;;;;0.97;0.87;;;17.30;99.90;;;;;;5071804;28;20192;-63
2022/10/18 02:41:42;;;;;;;2.03;1.20;;;17.30;99.90;;;;;;5073145;28;20196;-65
2022/10/18 02:44:10;;;;;;;1.53;1.00;;;17.30;99.90;;;;;;5074488;28;20273;-64
2022/10/18 02:46:39;;;;;;;1.10;1.00;;;17.30;99.90;;;;;;5084073;28;20711;-63
2022/10/18 02:49:06;;;;;;;1.40;1.10;;;17.30;99.90;;;;;;5089287;28;20221;-65
2022/10/18 02:51:33;;;;;;;1.53;1.20;;;17.30;99.90;;;;;;5082399;28;20290;-61
2022/10/18 02:54:00;;;;;;;1.10;1.10;;;17.30;99.90;;;;;;5078576;28;20643;-63
2022/10/18 02:56:27;;;;;;;1.37;0.87;;;17.30;99.90;;;;;;5079793;28;20227;-61
2022/10/18 02:58:54;;;;;;;1.03;1.00;;;17.30;99.90;;;;;;5079521;28;20250;-61
2022/10/18 03:01:20;;;;;;;1.23;1.10;;;17.30;99.90;;;;;;5075529;28;20207;-62
2022/10/18 03:03:49;;;;;;;1.37;1.17;;;17.20;99.90;;;;;;5076082;28;20229;-62
2022/10/18 03:06:16;;;;;;;3.13;1.33;;;17.20;99.90;;;;;;5072772;28;20282;-62
2022/10/18 03:08:42;;;;;;;1.00;1.00;;;17.20;99.90;;;;;;5075775;28;20219;-62
2022/10/18 03:11:09;;;;;;;2.03;1.30;;;17.20;99.90;;;;;;5076733;28;20207;-64
2022/10/18 03:13:36;;;;;;;0.83;0.83;;;17.10;99.90;;;;;;5080061;28;20223;-62
2022/10/18 03:16:03;;;;;;;1.23;1.10;;;17.10;99.90;;;;;;5075044;28;20574;-62
2022/10/18 03:18:30;;;;;;;1.00;1.00;;;17.10;99.90;;;;;;5074945;28;20573;-64
2022/10/18 03:21:03;;;;;;;1.70;1.00;;;17.10;99.90;;;;;;5077653;28;20199;-63
2022/10/18 03:23:30;;;;;;;1.13;1.13;;;17.10;99.90;;;;;;5075008;28;20227;-62
2022/10/18 03:25:56;;;;;;;1.23;1.10;;;17.10;99.90;;;;;;5084109;28;20214;-62
2022/10/18 03:28:23;;;;;;;1.20;1.10;;;17.10;99.90;;;;;;5085020;28;20656;-62
2022/10/18 03:30:50;;;;;;;1.10;1.10;;;17.10;99.90;;;;;;5081691;28;20719;-62
2022/10/18 03:33:17;;;;;;;1.83;1.33;;;17.10;99.90;;;;;;5073874;28;20268;-62
2022/10/18 03:35:44;;;;;;;1.23;1.10;;;17.00;99.90;;;;;;5073638;28;20203;-62
2022/10/18 03:38:12;;;;;;;1.90;1.30;;;17.00;99.90;;;;;;5073282;28;20657;-63
2022/10/18 03:40:39;;;;;;;1.40;1.30;;;17.00;99.90;;;;;;5073207;28;20295;-62
2022/10/18 03:43:05;;;;;;;1.37;1.10;;;16.90;99.90;;;;;;5071578;28;20207;-62
2022/10/18 03:45:32;;;;;;;1.50;1.40;;;16.90;99.90;;;;;;5073112;28;20672;-62
2022/10/18 03:47:59;;;;;;;1.40;1.30;;;16.90;99.90;;;;;;5072991;28;20203;-64
2022/10/18 03:50:26;;;;;;;1.57;1.20;;;16.90;99.90;;;;;;5072940;28;20229;-62
2022/10/18 03:52:53;;;;;;;1.90;1.20;;;16.80;99.90;;;;;;5072455;28;20203;-62
2022/10/18 03:55:21;;;;;;;1.77;1.20;;;16.90;99.90;;;;;;5073414;28;20195;-62
2022/10/18 03:57:48;;;;;;;1.20;1.10;;;16.90;99.90;;;;;;5073168;28;20204;-62
2022/10/18 04:00:15;;;;;;;3.40;1.30;;;16.90;99.90;;;;;;5072542;28;20191;-62
2022/10/18 04:02:42;;;;;;;1.30;1.20;;;16.90;99.90;;;;;;5072357;28;20203;-62
2022/10/18 04:05:09;;;;;;;2.43;1.20;;;16.90;99.90;;;;;;5071756;28;20231;-62
2022/10/18 04:07:36;;;;;;;1.13;1.03;;;17.00;99.90;;;;;;5072320;28;20681;-63
2022/10/18 04:10:04;;;;;;;1.20;1.03;;;17.00;99.90;;;;;;5071452;28;20223;-62
2022/10/18 04:12:32;;;;;;;2.10;1.20;;;17.00;99.90;;;;;;5066832;28;20200;-63
2022/10/18 04:14:59;;;;;;;1.00;1.00;;;17.10;99.90;;;;;;5068491;28;20618;-62
2022/10/18 04:17:25;;;;;;;1.20;1.10;;;17.10;99.90;;;;;;5072297;28;20199;-62
2022/10/18 04:19:52;;;;;;;1.17;1.17;;;17.10;99.90;;;;;;5072037;28;20312;-62
2022/10/18 04:22:19;;;;;;;1.70;1.60;;;17.10;99.90;;;;;;5072111;28;20207;-62
2022/10/18 04:24:46;;;;;;;1.60;1.50;;;17.00;99.90;;;;;;5072252;28;20219;-62
2022/10/18 04:27:13;;;;;;;1.73;1.20;;;17.00;99.90;;;;;;5070053;28;20201;-62
2022/10/18 04:29:41;;;;;;;1.90;1.20;;;17.10;99.90;;;;;;5071837;28;20226;-63
2022/10/18 04:32:07;;;;;;;1.23;1.13;;;17.00;99.90;;;;;;5067613;28;20204;-63
2022/10/18 04:34:34;;;;;;;1.80;1.40;;;17.00;99.90;;;;;;5072245;28;20223;-62
2022/10/18 04:37:01;;;;;;;1.63;1.40;;;17.00;99.90;;;;;;5072364;28;20203;-62
2022/10/18 04:39:28;;;;;;;3.13;2.00;;;16.90;99.90;;;;;;5072173;28;20191;-62
2022/10/18 04:41:55;;;;;;;2.20;2.10;;;16.90;99.90;;;;;;5071578;28;20569;-62
2022/10/18 04:44:22;;;;;;;2.47;2.30;;;17.00;99.90;;;;;;5072178;28;20223;-62
2022/10/18 04:46:50;;;;;;;3.20;2.30;;;17.00;99.90;;;;;;5072047;28;20214;-63
2022/10/18 04:49:17;;;;;;;2.00;1.90;;;17.00;99.90;;;;;;5064076;28;20653;-64
2022/10/18 04:51:44;;;;;;;1.80;1.70;;;17.10;99.90;;;;;;5071452;28;20199;-62
2022/10/18 04:54:10;;;;;;;2.10;2.00;;;17.00;99.90;;;;;;5071401;28;20306;-62
2022/10/18 04:56:38;;;;;;;2.27;2.10;;;17.10;99.90;;;;;;5072609;28;20217;-63
2022/10/18 04:59:05;;;;;;;1.70;1.60;;;17.10;99.90;;;;;;5071762;28;20221;-63
2022/10/18 05:01:32;;;;;;;1.83;1.57;;;17.30;99.90;;;;;;5071528;28;20199;-62
2022/10/18 05:04:00;;;;;;;1.60;1.50;;;17.20;99.90;;;;;;5054158;28;20231;-64
2022/10/18 05:06:27;;;;;;;1.50;1.40;;;17.30;99.90;;;;;;5071878;28;20200;-63
2022/10/18 05:08:54;;;;;;;1.20;1.20;;;17.30;99.90;;;;;;5068839;28;20210;-64
2022/10/18 05:11:20;;;;;;;1.30;1.20;;;17.30;99.90;;;;;;5071888;28;20204;-62
2022/10/18 05:13:47;;;;;;;1.13;1.13;;;17.30;99.90;;;;;;5071504;28;20747;-63
2022/10/18 05:16:14;;;;;;;2.00;1.30;;;17.30;99.90;;;;;;5071621;28;20200;-61
2022/10/18 05:18:42;;;;;;;3.13;1.30;;;17.40;99.90;;;;;;5071790;28;20199;-64
2022/10/18 05:21:11;;;;;;;1.73;1.17;;;17.40;99.90;;;;;;5071132;28;20242;-63
2022/10/18 05:23:38;;;;;;;1.17;1.07;;;17.40;99.90;;;;;;5071403;28;20215;-62
2022/10/18 05:26:07;;;;;;;1.10;1.10;;;17.30;99.90;;;;;;5071750;28;20290;-63
2022/10/18 05:28:34;;;;;;;1.10;1.10;;;17.30;99.90;;;;;;5066546;28;20207;-62
2022/10/18 05:31:02;;;;;;;1.53;1.40;;;17.30;99.90;;;;;;5071333;28;20223;-62
2022/10/18 05:33:29;;;;;;;5.00;1.23;;;17.30;99.90;;;;;;5071622;28;20401;-63
2022/10/18 05:35:56;;;;;;;1.13;1.10;;;17.30;99.90;;;;;;5071705;28;20211;-62
2022/10/18 05:38:24;;;;;;;1.30;1.20;;;17.40;99.90;;;;;;5071838;28;20206;-62
2022/10/18 05:40:51;;;;;;;1.40;1.30;;;17.50;99.90;;;;;;5070956;28;20564;-61
2022/10/18 05:43:18;;;;;;;2.30;1.27;;;17.50;99.90;;;;;;5066997;28;20227;-62
2022/10/18 05:45:48;;;;;;;1.20;1.10;;;17.60;99.90;;;;;;5070587;28;20611;-62
2022/10/18 05:48:15;;;;;;;1.43;1.20;;;17.50;99.90;;;;;;5068727;28;20199;-62
2022/10/18 05:50:42;;;;;;;1.17;0.90;;;17.60;99.90;;;;;;5071071;28;20225;-61
2022/10/18 05:53:10;;;;;;;4.87;1.37;;;17.60;99.90;;;;;;5070371;28;20224;-61
2022/10/18 05:55:38;;;;;;;1.97;1.30;;;17.60;99.90;;;;;;5067622;28;20282;-63
2022/10/18 05:58:05;;;;;;;1.57;1.30;;;17.60;99.90;;;;;;5070651;28;20199;-62
2022/10/18 06:00:32;;;;;;;1.33;1.00;;;17.60;99.90;;;;;;5068056;28;20659;-62
2022/10/18 06:02:58;;;;;;;1.80;1.10;;;17.60;99.90;;;;;;5069152;28;20204;-62
2022/10/18 06:05:25;;;;;;;2.20;1.20;;;17.60;99.90;;;;;;5067724;28;20203;-62
2022/10/18 06:07:52;;;;;;;1.00;0.93;;;17.70;99.90;;;;;;5074437;28;20199;-62
2022/10/18 06:10:19;;;;;;;1.13;1.10;;;17.70;99.90;;;;;;5073447;28;20579;-62
2022/10/18 06:12:47;;;;;;;1.60;1.30;;;17.70;99.90;;;;;;5074487;28;20207;-63
2022/10/18 06:15:14;;;;;;;1.10;1.03;;;17.70;99.90;;;;;;5067541;28;20226;-63
2022/10/18 06:17:41;;;;;;;1.20;1.10;;;17.70;99.90;;;;;;5101063;22;20195;-70
2022/10/18 06:20:09;;;;;;;1.00;1.00;;;17.70;99.90;;;;;;5091587;28;20264;-70
2022/10/18 06:22:36;;;;;;;1.37;1.10;;;17.80;99.90;;;;;;5092594;28;20210;-70
2022/10/18 06:25:02;;;;;;;1.13;1.00;;;17.80;99.90;;;;;;5095854;28;20297;-71
2022/10/18 06:27:30;;;;;;;0.97;0.97;;;17.90;99.90;;;;;;5099277;28;20228;-68
2022/10/18 06:29:58;;;;;;;1.57;1.30;;;17.90;99.90;;;;;;5098257;28;20222;-70
2022/10/18 06:32:25;;;;;;;2.17;1.20;;;18.00;99.90;;;;;;5094511;28;20668;-68
2022/10/18 06:34:52;;;;;;;1.00;1.00;;;18.00;99.90;;;;;;5099464;28;20202;-70
2022/10/18 06:37:19;;;;;;;1.90;1.20;;;18.00;99.90;;;;;;5104272;28;20686;-71
2022/10/18 06:39:45;;;;;;;1.10;1.00;;;18.00;99.90;;;;;;5092554;28;20222;-70
2022/10/18 06:42:12;;;;;;;1.47;1.20;;;18.10;99.90;;;;;;5092137;28;20209;-70
2022/10/18 06:44:39;;;;;;;1.40;1.30;;;18.10;99.90;;;;;;5091795;28;20205;-70
2022/10/18 06:47:07;;;;;;;1.80;1.23;;;18.20;99.90;;;;;;5091455;28;20214;-70
2022/10/18 06:49:34;;;;;;;2.30;1.00;;;18.30;99.90;;;;;;5091921;28;20760;-71
2022/10/18 06:52:01;;;;;;;1.63;1.20;;;18.30;99.90;;;;;;5091350;28;20206;-69
2022/10/18 06:54:28;;;;;;;1.20;1.10;;;18.40;99.90;;;;;;5088465;28;20257;-69
2022/10/18 06:56:56;;;;;;;1.30;1.20;;;18.40;99.90;;;;;;5111600;28;20289;-68
2022/10/18 06:59:23;;;;;;;1.33;1.00;;;18.50;99.90;;;;;;5114311;28;20260;-71
2022/10/18 07:01:50;;;;;;;0.90;0.90;;;18.50;99.90;;;;;;5100765;28;20206;-70
2022/10/18 07:04:18;;;;;;;0.93;0.93;;;18.60;99.90;;;;;;5099880;28;20288;-70
2022/10/18 07:06:45;;;;;;;1.30;1.20;;;18.60;99.90;;;;;;5101113;28;20313;-69
2022/10/18 07:09:12;;;;;;;1.33;1.03;;;18.70;99.90;;;;;;5098990;28;20286;-69
2022/10/18 07:11:39;;;;;;;1.23;1.10;;;18.80;99.90;;;;;;5093341;28;20222;-69
2022/10/18 07:14:05;;;;;;;1.00;1.00;;;18.80;99.90;;;;;;5093087;28;20300;-70
2022/10/18 07:16:33;;;;;;;3.40;1.20;;;18.80;99.90;;;;;;5093990;28;20295;-70
2022/10/18 07:19:00;;;;;;;1.00;1.00;;;18.80;99.90;;;;;;5093883;28;20226;-69
2022/10/18 07:21:28;;;;;;;1.27;1.07;;;18.80;99.90;;;;;;5093883;28;20729;-69
2022/10/18 07:23:56;;;;;;;1.67;1.23;;;18.90;99.90;;;;;;5094779;28;20544;-69
2022/10/18 07:26:26;;;;;;;0.90;0.90;;;18.90;99.90;;;;;;5095694;28;20198;-68
2022/10/18 07:28:54;;;;;;;2.37;1.27;;;18.90;99.90;;;;;;5095686;28;20276;-70
2022/10/18 07:31:22;;;;;;;1.10;1.10;;;18.90;99.90;;;;;;5093664;28;20225;-69
2022/10/18 07:33:49;;;;;;;1.23;1.17;;;19.00;99.90;;;;;;5094408;28;20258;-69
2022/10/18 07:36:16;;;;;;;1.53;1.10;;;19.00;99.90;;;;;;5085878;28;20633;-70
2022/10/18 07:38:44;;;;;;;0.83;0.83;;;19.00;99.90;;;;;;5096834;28;20222;-69
2022/10/18 07:41:13;;;;;;;0.90;0.90;;;19.10;99.90;;;;;;5096973;28;20234;-70
2022/10/18 07:43:43;;;;;;;1.13;1.03;;;19.10;99.90;;;;;;5097416;28;20199;-69
2022/10/18 07:46:10;;;;;;;1.93;1.17;;;19.20;99.90;;;;;;5096359;28;20203;-68
2022/10/18 07:48:37;;;;;;;1.00;1.00;;;19.10;99.90;;;;;;5095227;28;20732;-69
2022/10/18 07:51:04;;;;;;;1.33;1.23;;;19.20;99.90;;;;;;5094182;28;20232;-70
2022/10/18 07:53:33;;;;;;;1.10;1.10;;;19.30;99.90;;;;;;5094270;28;20213;-70
2022/10/18 07:56:02;;;;;;;1.30;1.20;;;19.20;99.90;;;;;;5093570;28;20252;-71
2022/10/18 07:58:30;;;;;;;1.53;1.33;;;19.20;99.90;;;;;;5093775;28;20224;-69
2022/10/18 08:00:57;;;;;;;1.43;1.33;;;19.20;99.90;;;;;;5095223;28;20266;-69
2022/10/18 08:03:24;;;;;;;1.27;1.20;;;19.30;99.90;;;;;;5099566;28;20305;-71
2022/10/18 08:05:52;;;;;;;1.30;1.20;;;19.30;99.90;;;;;;5099140;28;20293;-69
2022/10/18 08:08:20;;;;;;;2.13;1.30;;;19.30;99.90;;;;;;5098145;28;20214;-70
2022/10/18 08:10:47;;;;;;;1.53;1.40;;;19.30;99.90;;;;;;5101845;28;20219;-70
2022/10/18 08:13:15;;;;;;;1.50;1.40;;;19.30;99.90;;;;;;5108179;28;20202;-71
2022/10/18 08:15:42;;;;;;;1.27;1.20;;;19.30;99.90;;;;;;5109292;28;20201;-69
2022/10/18 08:18:09;;;;;;;1.40;1.30;;;19.20;99.90;;;;;;5108695;28;20321;-69
2022/10/18 08:20:36;;;;;;;1.10;1.10;;;19.20;99.90;;;;;;5108307;28;20225;-71
2022/10/18 08:23:03;;;;;;;1.23;1.13;;;19.20;99.90;;;;;;5094083;28;20206;-70
2022/10/18 08:25:31;;;;;;;1.63;1.20;;;19.30;99.90;;;;;;5096277;28;20199;-69
2022/10/18 08:27:58;;;;;;;1.43;1.30;;;19.30;99.90;;;;;;5089204;28;20228;-70
2022/10/18 08:30:26;;;;;;;1.30;1.20;;;19.40;99.90;;;;;;5094726;28;20222;-69
2022/10/18 08:32:53;;;;;;;1.37;1.27;;;19.60;99.90;;;;;;5094070;28;20202;-70
2022/10/18 08:35:19;;;;;;;1.20;1.10;;;19.60;99.90;;;;;;5093023;28;20640;-71
2022/10/18 08:37:47;;;;;;;1.40;1.30;;;19.70;99.90;;;;;;5092659;28;20211;-71
2022/10/18 08:40:14;;;;;;;1.30;1.20;;;20.00;99.90;;;;;;5089705;28;20195;-70
2022/10/18 08:42:53;;;;;;;2.35;1.30;;;20.20;99.90;;;;;;5092628;28;20195;-69
2022/10/18 08:45:21;;;;;;;1.37;1.20;;;20.30;99.90;;;;;;5087902;28;20199;-69
2022/10/18 08:47:52;;;;;;;1.37;1.10;;;20.30;99.90;;;;;;5088512;28;20569;-69
2022/10/18 08:50:21;;;;;;;1.30;1.20;;;20.60;99.90;;;;;;5089738;28;20218;-70
2022/10/18 08:52:53;;;;;;;1.30;1.23;;;20.50;99.90;;;;;;5092557;28;20209;-71
2022/10/18 08:55:25;;;;;;;1.10;1.10;;;20.50;99.90;;;;;;5088109;28;20207;-69
2022/10/18 08:57:52;;;;;;;1.33;1.23;;;20.40;99.90;;;;;;5091955;28;20309;-69
2022/10/18 09:00:21;;;;;;;1.50;1.40;;;20.40;99.90;;;;;;5092129;28;20607;-69
2022/10/18 09:03:13;;;;;;;1.30;1.20;;;20.50;99.90;;;;;;5091961;28;20198;-71
2022/10/18 09:05:48;;;;;;;1.17;1.13;;;20.80;99.90;;;;;;5096166;28;20210;-69
2022/10/18 09:08:32;;;;;;;1.37;1.10;;;21.10;99.90;;;;;;5086845;28;20568;-70
2022/10/18 09:11:09;;;;;;;1.33;1.30;;;21.00;99.90;;;;;;5099343;28;20308;-68
2022/10/18 09:13:59;;;;;;;1.47;1.37;;;21.00;99.90;;;;;;5091897;28;20388;-69
2022/10/18 09:16:37;;;;;;;1.27;1.17;;;20.90;99.90;;;;;;5090429;28;20664;-69
2022/10/18 09:19:13;;;;;;;1.17;1.17;;;20.90;99.90;;;;;;5091198;28;20238;-69
2022/10/18 09:21:50;;;;;;;1.57;1.33;;;20.90;99.90;;;;;;5097453;28;20193;-70
2022/10/18 09:24:25;;;;;;;1.40;1.30;;;21.10;99.90;;;;;;5087048;28;20202;-69
2022/10/18 09:26:57;;;;;;;1.97;1.30;;;21.20;99.90;;;;;;5091446;28;20679;-69
2022/10/18 09:29:40;;;;;;;1.30;1.20;;;21.50;99.90;;;;;;5089617;28;20310;-69
2022/10/18 09:32:22;;;;;;;1.50;1.40;;;21.60;99.90;;;;;;5087681;28;20254;-70
2022/10/18 09:34:55;;;;;;;1.93;1.10;;;21.70;99.90;;;;;;5089930;28;20732;-70
2022/10/18 09:37:24;;;;;;;1.17;1.17;;;22.00;99.90;;;;;;5089320;28;20649;-69
2022/10/18 09:40:06;;;;;;;1.50;1.40;;;22.20;99.90;;;;;;5095459;28;20228;-71
2022/10/18 09:42:37;;;;;;;1.20;1.20;;;22.40;99.90;;;;;;5097856;28;20194;-69
2022/10/18 09:45:14;;;;;;;1.10;0.80;;;22.60;99.90;;;;;;5105428;28;20635;-70
2022/10/18 09:47:45;;;;;;;1.00;1.00;;;22.90;99.90;;;;;;5098318;28;20194;-69
2022/10/18 09:50:21;;;;;;;0.90;0.90;;;23.10;99.90;;;;;;5102731;28;20637;-68
2022/10/18 09:53:05;;;;;;;0.93;0.90;;;23.30;99.90;;;;;;5097141;28;20205;-69
2022/10/18 09:55:37;;;;;;;1.30;1.00;;;23.50;99.90;;;;;;5099263;28;20206;-68
2022/10/18 09:58:06;;;;;;;0.90;0.90;;;23.60;99.90;;;;;;5096639;28;20228;-70
2022/10/18 10:00:38;;;;;;;1.13;1.02;;;23.70;99.90;;;;;;5095391;28;20597;-68
2022/10/18 10:03:11;;;;;;;0.90;0.90;;;23.80;99.90;;;;;;5096006;28;20203;-69
2022/10/18 10:05:39;;;;;;;1.00;1.00;;;23.80;99.90;;;;;;5093419;28;20285;-70
2022/10/18 10:08:05;;;;;;;1.00;1.00;;;23.80;99.90;;;;;;5094764;28;20309;-70
2022/10/18 10:10:33;;;;;;;1.05;1.00;;;23.80;99.90;;;;;;5093629;28;20293;-69
2022/10/18 10:13:06;;;;;;;0.90;0.90;;;23.90;99.90;;;;;;5094992;28;20234;-69
2022/10/18 10:15:35;;;;;;;1.00;1.00;;;24.10;99.90;;;;;;5098153;28;20262;-71
2022/10/18 10:18:04;;;;;;;1.00;1.00;;;24.00;99.90;;;;;;5096467;28;20252;-70
2022/10/18 10:20:35;;;;;;;0.93;0.93;;;23.80;99.90;;;;;;5094230;28;20656;-72
2022/10/18 10:23:13;;;;;;;1.10;1.00;;;23.70;99.90;;;;;;5095242;28;20674;-69
2022/10/18 10:25:42;;;;;;;0.90;0.90;;;23.90;99.90;;;;;;5094968;28;20565;-69
2022/10/18 10:28:14;;;;;;;1.08;1.08;;;24.00;99.90;;;;;;5094881;28;20317;-70
2022/10/18 10:30:41;;;;;;;0.88;0.88;;;24.10;99.90;;;;;;5093217;28;20565;-69
2022/10/18 10:33:34;;;;;;;1.20;1.10;;;24.20;99.90;;;;;;5094637;28;20300;-69
2022/10/18 10:36:03;;;;;;;1.13;1.00;;;24.10;99.90;;;;;;5093199;28;20202;-71
2022/10/18 10:38:31;;;;;;;0.95;0.95;;;24.10;99.90;;;;;;5093418;28;20226;-70
2022/10/18 10:40:59;;;;;;;1.02;0.88;;;23.90;99.90;;;;;;5096760;28;20233;-69
2022/10/18 10:43:29;;;;;;;1.17;1.08;;;23.90;99.90;;;;;;5094093;28;20656;-70
2022/10/18 10:46:00;;;;;;;0.80;0.80;;;23.90;99.90;;;;;;5091515;28;20656;-69
2022/10/18 10:48:30;;;;;;;0.93;0.90;;;23.90;99.90;;;;;;5094191;28;20223;-70
2022/10/18 10:51:02;;;;;;;1.40;1.17;;;23.90;99.90;;;;;;5093913;28;20305;-71
2022/10/18 10:53:38;;;;;;;0.77;0.77;;;24.00;99.90;;;;;;5093588;28;20209;-70
2022/10/18 10:56:07;;;;;;;0.88;0.88;;;23.90;99.90;;;;;;5091457;28;20236;-70
2022/10/18 10:58:40;;;;;;;0.98;0.90;;;23.90;99.90;;;;;;5094036;28;20568;-71
2022/10/18 11:01:35;;;;;;;1.00;1.00;;;23.90;99.90;;;;;;5094468;28;20248;-69
2022/10/18 11:04:22;;;;;;;0.63;0.63;;;23.90;99.90;;;;;;5031963;28;20578;-68
2022/10/18 11:06:58;;;;;;;0.90;0.90;;;23.90;99.90;;;;;;5091355;28;20203;-69
2022/10/18 11:09:48;;;;;;;0.90;0.90;;;24.00;99.90;;;;;;5091027;28;20218;-70
2022/10/18 11:12:24;;;;;;;0.70;0.70;;;24.00;99.90;;;;;;5084249;28;20215;-70
2022/10/18 11:14:57;;;;;;;0.80;0.73;;;24.10;99.90;;;;;;5087539;28;20203;-70
2022/10/18 11:17:33;;;;;;;0.90;0.90;;;24.10;99.90;;;;;;5089063;28;20214;-68
2022/10/18 11:20:12;;;;;;;0.90;0.90;;;23.70;99.90;;;;;;5090969;28;20684;-69
2022/10/18 11:22:43;;;;;;;0.80;0.80;;;23.60;99.90;;;;;;5084260;28;20201;-70
2022/10/18 11:25:15;;;;;;;0.93;0.93;;;23.60;99.90;;;;;;5080931;28;20198;-69
2022/10/18 11:27:49;;;;;;;0.87;0.80;;;23.50;99.90;;;;;;5085081;28;20203;-67
2022/10/18 11:30:34;;;;;;;0.77;0.77;;;23.40;99.90;;;;;;5087752;28;20197;-70
2022/10/18 11:33:11;;;;;;;0.98;0.82;;;23.40;99.90;;;;;;5081456;28;20222;-68
2022/10/18 11:35:45;;;;;;;1.27;0.87;;;23.30;99.90;;;;;;5086120;28;20668;-69
2022/10/18 11:38:34;;;;;;;1.00;1.00;;;23.30;99.90;;;;;;5081829;28;20222;-68
2022/10/18 11:41:33;;;;;;;0.93;0.93;;;23.40;99.90;;;;;;5084304;28;20217;-70
2022/10/18 11:44:03;;;;;;;0.90;0.90;;;23.30;99.90;;;;;;5081569;28;20865;-70
2022/10/18 11:46:56;;;;;;;1.17;1.07;;;23.30;99.90;;;;;;5080526;28;20200;-70
2022/10/18 11:49:59;;;;;;;0.85;0.85;;;23.30;99.90;;;;;;5086679;28;20230;-71
2022/10/18 11:52:34;;;;;;;3.40;0.90;;;23.40;99.90;;;;;;5082111;28;20218;-68
2022/10/18 11:55:27;;;;;;;0.80;0.80;;;23.60;99.90;;;;;;5081836;28;20225;-70
2022/10/18 11:58:01;;;;;;;0.87;0.87;;;23.60;99.90;;;;;;5088264;28;20696;-68
2022/10/18 12:00:47;;;;;;;0.90;0.90;;;23.50;99.90;;;;;;5084324;28;20201;-68
2022/10/18 12:03:24;;;;;;;1.02;0.85;;;23.40;99.90;;;;;;5083414;28;20290;-68
2022/10/18 12:05:52;;;;;;;0.63;0.63;;;23.50;99.90;;;;;;5075698;28;20297;-69
2022/10/18 12:08:24;;;;;;;0.70;0.70;;;23.40;99.90;;;;;;5076362;28;20752;-69
2022/10/18 12:10:55;;;;;;;0.97;0.97;;;23.50;99.90;;;;;;5077831;28;20195;-70
2022/10/18 12:13:30;;;;;;;0.80;0.80;;;23.80;99.90;;;;;;5077292;28;20196;-70
2022/10/18 12:15:59;;;;;;;1.10;1.00;;;23.90;99.90;;;;;;5079847;28;20198;-68
2022/10/18 12:18:28;;;;;;;0.90;0.90;;;23.90;99.90;;;;;;5077443;28;20606;-70
2022/10/18 12:20:56;;;;;;;0.97;0.90;;;23.80;99.90;;;;;;5080857;28;20280;-68
2022/10/18 12:23:36;;;;;;;0.83;0.80;;;23.80;99.90;;;;;;5081369;28;20430;-71
2022/10/18 12:26:06;;;;;;;0.97;0.90;;;23.70;99.90;;;;;;5081189;28;20203;-68
2022/10/18 12:28:42;;;;;;;0.77;0.77;;;23.60;99.90;;;;;;5081267;28;20226;-69
2022/10/18 12:31:21;;;;;;;1.00;1.00;;;23.60;99.90;;;;;;5082840;28;20213;-69
2022/10/18 12:33:52;;;;;;;1.07;0.97;;;23.70;99.90;;;;;;5100136;28;20205;-69
2022/10/18 12:36:35;;;;;;;0.90;0.80;;;23.50;99.90;;;;;;5093338;28;20201;-69
2022/10/18 12:39:06;;;;;;;0.87;0.87;;;23.50;99.90;;;;;;5096944;28;20897;-69
2022/10/18 12:41:35;;;;;;;0.90;0.90;;;23.50;99.90;;;;;;5075496;28;20699;-71
2022/10/18 12:44:05;;;;;;;1.00;0.75;;;23.40;99.90;;;;;;5085812;28;20198;-70
2022/10/18 12:46:49;;;;;;;1.17;0.90;;;23.40;99.90;;;;;;5084816;28;20649;-69
2022/10/18 12:49:21;;;;;;;0.70;0.70;;;23.40;99.90;;;;;;5092891;28;20309;-69
2022/10/18 12:51:53;;;;;;;0.80;0.80;;;23.40;99.90;;;;;;5091914;28;20572;-68
2022/10/18 12:54:23;;;;;;;0.77;0.77;;;23.50;99.90;;;;;;5091878;28;20211;-70
2022/10/18 12:56:50;;;;;;;0.87;0.80;;;23.50;99.90;;;;;;5091724;28;20216;-69
2022/10/18 12:59:50;;;;;;;0.80;0.80;;;23.40;99.90;;;;;;5091206;28;20242;-70
2022/10/18 13:02:30;;;;;;;1.07;1.00;;;23.30;99.90;;;;;;5090356;28;20206;-69
2022/10/18 13:04:59;;;;;;;0.75;0.75;;;23.30;99.90;;;;;;5092052;28;20202;-68
2022/10/18 13:07:42;;;;;;;1.03;0.97;;;23.30;99.90;;;;;;5091760;28;20222;-69